Time;durP1;ratioP1;P1;durP2;ratioP2;P2;SDS_P1;SDS_P2;PMS_P1;PMS_P2;Temp;Humidity;BMP_temperature;BMP_pressure;BME280_temperature;BME280_humidity;BME280_pressure;Samples;Min_cycle;Max_cycle;Signal;HPM_P1;HPM_P2
2022/09/30 00:01:18;;;;;;;9.32;7.32;;;9.00;99.90;;;;;;4980295;28;90389;-32
2022/09/30 00:03:44;;;;;;;8.30;7.50;;;9.00;99.90;;;;;;4980923;28;89610;-31
2022/09/30 00:06:10;;;;;;;6.45;5.95;;;9.00;99.90;;;;;;4980780;28;89093;-31
2022/09/30 00:08:39;;;;;;;8.05;7.35;;;9.00;99.90;;;;;;4979928;28;89429;-33
2022/09/30 00:11:07;;;;;;;7.40;6.90;;;9.00;99.90;;;;;;4980482;28;90186;-33
2022/09/30 00:13:35;;;;;;;8.73;7.93;;;8.90;99.90;;;;;;4980086;28;89734;-30
2022/09/30 00:16:01;;;;;;;7.28;6.65;;;8.90;99.90;;;;;;4981353;28;89543;-32
2022/09/30 00:18:28;;;;;;;9.15;7.68;;;8.80;99.90;;;;;;4980385;28;91085;-31
2022/09/30 00:20:54;;;;;;;6.80;6.30;;;8.90;99.90;;;;;;4980147;28;89644;-32
2022/09/30 00:23:21;;;;;;;8.27;7.57;;;8.80;99.90;;;;;;4980949;28;89911;-32
2022/09/30 00:25:47;;;;;;;8.52;7.80;;;8.80;99.90;;;;;;4980708;28;88250;-30
2022/09/30 00:28:13;;;;;;;9.57;7.63;;;8.80;99.90;;;;;;4980533;28;90229;-30
2022/09/30 00:30:40;;;;;;;8.80;8.02;;;8.80;99.90;;;;;;4980088;28;91086;-33
2022/09/30 00:33:06;;;;;;;7.47;6.88;;;8.80;99.90;;;;;;4980309;28;90508;-32
2022/09/30 00:35:31;;;;;;;8.40;7.60;;;8.80;99.90;;;;;;4979925;28;88658;-31
2022/09/30 00:37:58;;;;;;;7.80;7.03;;;8.70;99.90;;;;;;4980642;28;90284;-31
2022/09/30 00:40:25;;;;;;;7.47;6.75;;;8.70;99.90;;;;;;4962635;28;90818;-31
2022/09/30 00:42:51;;;;;;;7.13;6.43;;;8.70;99.90;;;;;;4960353;28;89563;-30
2022/09/30 00:45:16;;;;;;;7.55;6.95;;;8.70;99.90;;;;;;4960188;28;88497;-31
2022/09/30 00:47:48;;;;;;;8.02;7.22;;;8.60;99.90;;;;;;5005112;22;90203;-29
2022/09/30 00:50:34;;;;;;;6.45;5.88;;;8.60;99.90;;;;;;4979280;28;90040;-31
2022/09/30 00:53:06;;;;;;;7.80;6.82;;;8.50;99.90;;;;;;4979858;28;89873;-30
2022/09/30 00:55:47;;;;;;;11.70;7.32;;;8.50;99.90;;;;;;4979759;28;89338;-32
2022/09/30 00:58:20;;;;;;;7.00;6.32;;;8.40;99.90;;;;;;4961101;28;90537;-31
2022/09/30 01:00:46;;;;;;;7.95;7.22;;;8.50;99.90;;;;;;4980173;28;89676;-33
2022/09/30 01:03:11;;;;;;;8.25;7.45;;;8.40;99.90;;;;;;4979608;28;89103;-34
2022/09/30 01:05:37;;;;;;;6.65;6.15;;;8.40;99.90;;;;;;4979823;28;88288;-32
2022/09/30 01:08:05;;;;;;;7.90;7.28;;;8.40;99.90;;;;;;4979791;28;89382;-30
2022/09/30 01:10:30;;;;;;;6.90;6.30;;;8.40;99.90;;;;;;4979097;28;89232;-32
2022/09/30 01:12:57;;;;;;;8.20;7.43;;;8.40;99.90;;;;;;4979635;28;89756;-34
2022/09/30 01:15:36;;;;;;;8.70;7.95;;;8.40;99.90;;;;;;4980064;28;88202;-31
2022/09/30 01:18:16;;;;;;;7.93;7.22;;;8.40;99.90;;;;;;4980510;28;90257;-31
2022/09/30 01:21:06;;;;;;;9.02;8.23;;;8.30;99.90;;;;;;4979140;28;90509;-31
2022/09/30 01:24:06;;;;;;;8.90;8.10;;;8.40;99.90;;;;;;4978892;28;90404;-31
2022/09/30 01:27:06;;;;;;;8.20;6.93;;;8.40;99.90;;;;;;4979502;28;89512;-30
2022/09/30 01:29:47;;;;;;;7.95;7.25;;;8.40;99.90;;;;;;4967593;28;90190;-32
2022/09/30 01:32:19;;;;;;;8.77;7.97;;;8.40;99.90;;;;;;4979955;28;89525;-32
2022/09/30 01:34:55;;;;;;;8.15;7.43;;;8.50;99.90;;;;;;4979207;28;89920;-32
2022/09/30 01:37:24;;;;;;;9.13;8.25;;;8.40;99.90;;;;;;4979924;28;89315;-33
2022/09/30 01:40:07;;;;;;;9.60;8.73;;;8.40;99.90;;;;;;4979944;28;90614;-30
2022/09/30 01:42:50;;;;;;;9.75;8.85;;;8.40;99.90;;;;;;4979078;28;90039;-31
2022/09/30 01:45:23;;;;;;;11.55;10.45;;;8.40;99.90;;;;;;4979029;28;89872;-30
2022/09/30 01:48:13;;;;;;;10.77;9.68;;;8.40;99.90;;;;;;4977185;28;88698;-33
2022/09/30 01:50:51;;;;;;;9.68;8.90;;;8.40;99.90;;;;;;4979468;28;89510;-30
2022/09/30 01:53:25;;;;;;;11.68;10.57;;;8.40;99.90;;;;;;4965684;28;89878;-33
2022/09/30 01:56:17;;;;;;;11.82;10.73;;;8.40;99.90;;;;;;4978313;28;89574;-30
2022/09/30 01:59:15;;;;;;;12.90;11.70;;;8.40;99.90;;;;;;4967684;28;89383;-32
2022/09/30 02:02:17;;;;;;;12.82;11.52;;;8.40;99.90;;;;;;4978357;28;88609;-32
2022/09/30 02:04:52;;;;;;;12.95;11.60;;;8.40;99.90;;;;;;4947155;28;90090;-31
2022/09/30 02:07:30;;;;;;;12.02;10.98;;;8.40;99.90;;;;;;4978940;28;90171;-31
2022/09/30 02:10:02;;;;;;;;;;;8.40;99.90;;;;;;4979448;28;90022;-34
2022/09/30 02:12:41;;;;;;;15.68;12.13;;;8.30;99.90;;;;;;4980552;28;90298;-34
2022/09/30 02:15:14;;;;;;;13.38;12.15;;;8.30;99.90;;;;;;4976904;28;90622;-30
2022/09/30 02:17:50;;;;;;;14.10;12.68;;;8.30;99.90;;;;;;4978224;28;90443;-29
2022/09/30 02:20:24;;;;;;;13.13;11.93;;;8.40;99.90;;;;;;4977994;28;89118;-32
2022/09/30 02:23:15;;;;;;;13.15;11.60;;;8.40;99.90;;;;;;4978819;28;90266;-29
2022/09/30 02:25:46;;;;;;;12.15;11.13;;;8.40;99.90;;;;;;4979007;28;90028;-31
2022/09/30 02:28:18;;;;;;;11.73;10.63;;;8.30;99.90;;;;;;4977611;28;89620;-35
2022/09/30 02:30:49;;;;;;;12.77;11.57;;;8.30;99.90;;;;;;4964251;28;89166;-30
2022/09/30 02:33:24;;;;;;;17.13;12.00;;;8.30;99.90;;;;;;4977750;28;90465;-31
2022/09/30 02:35:57;;;;;;;12.77;11.65;;;8.30;99.90;;;;;;4978257;28;89747;-34
2022/09/30 02:38:36;;;;;;;13.35;12.25;;;8.30;99.90;;;;;;4977285;28;90294;-30
2022/09/30 02:41:09;;;;;;;13.85;11.63;;;8.20;99.90;;;;;;4977509;28;90124;-30
2022/09/30 02:43:35;;;;;;;13.57;12.25;;;8.30;99.90;;;;;;4978160;28;90039;-34
2022/09/30 02:46:26;;;;;;;14.05;12.65;;;8.20;99.90;;;;;;4977656;28;89724;-31
2022/09/30 02:49:10;;;;;;;13.40;11.50;;;8.20;99.90;;;;;;4978007;28;89138;-32
2022/09/30 02:51:58;;;;;;;12.07;11.00;;;8.20;99.90;;;;;;4963522;28;89594;-31
2022/09/30 02:54:48;;;;;;;12.30;11.10;;;8.10;99.90;;;;;;4977250;28;90200;-34
2022/09/30 02:57:32;;;;;;;12.32;11.13;;;8.10;99.90;;;;;;4977301;28;89867;-32
2022/09/30 02:59:58;;;;;;;13.73;12.02;;;8.10;99.90;;;;;;4981346;28;89699;-30
2022/09/30 03:02:24;;;;;;;13.27;12.02;;;8.00;99.90;;;;;;4981066;28;90104;-32
2022/09/30 03:04:50;;;;;;;12.73;11.45;;;8.00;99.90;;;;;;4980806;28;89760;-34
2022/09/30 03:07:16;;;;;;;13.85;12.45;;;8.00;99.90;;;;;;4980368;28;90865;-32
2022/09/30 03:09:42;;;;;;;12.73;11.52;;;8.10;99.90;;;;;;4980646;28;90281;-31
2022/09/30 03:12:21;;;;;;;12.52;11.32;;;8.00;99.90;;;;;;4981385;28;88417;-30
2022/09/30 03:14:54;;;;;;;12.30;11.20;;;8.00;99.90;;;;;;4980699;28;90246;-31
2022/09/30 03:17:27;;;;;;;10.93;9.93;;;8.00;99.90;;;;;;4980186;28;89895;-29
2022/09/30 03:19:55;;;;;;;11.38;10.10;;;7.90;99.90;;;;;;4961347;28;88719;-30
2022/09/30 03:22:40;;;;;;;10.32;9.32;;;7.90;99.90;;;;;;4981469;28;89694;-31
2022/09/30 03:25:20;;;;;;;12.23;10.88;;;7.80;99.90;;;;;;4981769;28;90359;-34
2022/09/30 03:28:16;;;;;;;11.68;10.55;;;7.70;99.90;;;;;;4980562;28;89940;-29
2022/09/30 03:31:10;;;;;;;12.32;11.07;;;7.80;99.90;;;;;;4967034;28;89608;-29
2022/09/30 03:33:49;;;;;;;11.75;10.55;;;7.70;99.90;;;;;;4980563;28;88916;-32
2022/09/30 03:36:26;;;;;;;11.73;10.73;;;7.60;99.90;;;;;;4980784;28;89095;-32
2022/09/30 03:39:04;;;;;;;10.60;9.60;;;7.60;99.90;;;;;;4980610;28;89517;-30
2022/09/30 03:41:52;;;;;;;10.80;9.90;;;7.50;99.90;;;;;;4980719;28;90273;-30
2022/09/30 03:44:30;;;;;;;11.52;10.48;;;7.50;99.90;;;;;;4967201;28;88869;-31
2022/09/30 03:47:03;;;;;;;13.70;11.23;;;7.50;99.90;;;;;;4979408;28;90224;-32
2022/09/30 03:49:33;;;;;;;11.27;10.27;;;7.50;99.90;;;;;;4977683;28;89936;-33
2022/09/30 03:52:03;;;;;;;10.85;9.77;;;7.40;99.90;;;;;;4980564;28;89410;-31
2022/09/30 03:54:30;;;;;;;10.23;9.32;;;7.40;99.90;;;;;;4981103;28;88418;-33
2022/09/30 03:56:57;;;;;;;10.20;9.35;;;7.40;99.90;;;;;;4980323;28;89338;-33
2022/09/30 03:59:26;;;;;;;11.05;10.15;;;7.30;99.90;;;;;;4980086;28;90309;-31
2022/09/30 04:01:52;;;;;;;10.30;9.30;;;7.20;99.90;;;;;;4979916;28;90046;-34
2022/09/30 04:04:18;;;;;;;12.35;10.43;;;7.20;99.90;;;;;;4980984;28;88926;-33
2022/09/30 04:06:43;;;;;;;11.70;10.70;;;7.20;99.90;;;;;;4979371;28;90325;-29
2022/09/30 04:09:09;;;;;;;9.50;8.70;;;7.10;99.90;;;;;;4979713;28;90341;-31
2022/09/30 04:11:35;;;;;;;11.35;9.75;;;7.10;99.90;;;;;;4980314;28;89457;-32
2022/09/30 04:14:01;;;;;;;10.68;9.55;;;7.10;99.90;;;;;;4969764;28;89039;-32
2022/09/30 04:16:29;;;;;;;9.43;8.63;;;7.10;99.90;;;;;;4980354;28;92250;-29
2022/09/30 04:18:55;;;;;;;9.82;8.82;;;7.10;99.90;;;;;;4980595;28;89456;-30
2022/09/30 04:21:21;;;;;;;11.52;10.35;;;7.10;99.90;;;;;;4979959;28;90024;-33
2022/09/30 04:23:48;;;;;;;10.80;9.75;;;7.00;99.90;;;;;;4979898;28;89211;-33
2022/09/30 04:26:16;;;;;;;15.10;10.63;;;7.00;99.90;;;;;;4979924;28;90371;-30
2022/09/30 04:28:42;;;;;;;10.30;9.30;;;6.90;99.90;;;;;;4979060;28;89027;-28
2022/09/30 04:31:10;;;;;;;9.98;9.05;;;6.90;99.90;;;;;;4980577;28;87838;-33
2022/09/30 04:33:37;;;;;;;11.82;10.55;;;6.80;99.90;;;;;;4980373;28;89234;-33
2022/09/30 04:36:03;;;;;;;11.98;10.88;;;6.80;99.90;;;;;;4979707;28;88818;-31
2022/09/30 04:38:29;;;;;;;13.45;12.00;;;6.80;99.90;;;;;;4979554;28;89946;-30
2022/09/30 04:40:56;;;;;;;16.17;14.77;;;6.90;99.90;;;;;;4979785;28;90084;-30
2022/09/30 04:43:23;;;;;;;14.10;12.35;;;6.90;99.90;;;;;;4979008;28;87860;-31
2022/09/30 04:45:50;;;;;;;16.48;14.88;;;6.90;99.90;;;;;;4978991;28;90285;-29
2022/09/30 04:48:16;;;;;;;65.40;51.50;;;6.90;99.90;;;;;;4978750;28;90686;-31
2022/09/30 04:50:42;;;;;;;14.55;13.07;;;6.90;99.90;;;;;;4979529;28;89936;-31
2022/09/30 04:53:10;;;;;;;12.90;11.63;;;6.90;99.90;;;;;;4979422;28;88589;-31
2022/09/30 04:55:35;;;;;;;17.00;15.40;;;6.90;99.90;;;;;;4978917;28;90462;-33
2022/09/30 04:58:01;;;;;;;14.25;12.95;;;6.90;99.90;;;;;;4979346;28;89834;-31
2022/09/30 05:00:27;;;;;;;13.15;11.95;;;6.90;99.90;;;;;;4978978;28;89703;-32
2022/09/30 05:02:52;;;;;;;12.85;11.65;;;6.90;99.90;;;;;;4979280;28;88955;-30
2022/09/30 05:05:18;;;;;;;13.68;12.48;;;7.00;99.90;;;;;;4978269;28;89939;-31
2022/09/30 05:07:44;;;;;;;13.88;12.57;;;7.00;99.90;;;;;;4978703;28;89834;-30
2022/09/30 05:10:11;;;;;;;11.85;10.82;;;7.00;99.90;;;;;;4975241;28;89522;-29
2022/09/30 05:12:39;;;;;;;13.48;12.23;;;7.00;99.90;;;;;;4977852;28;89834;-30
2022/09/30 05:15:06;;;;;;;12.77;11.63;;;7.00;99.90;;;;;;4979495;28;89027;-29
2022/09/30 05:17:31;;;;;;;13.07;11.88;;;7.10;99.90;;;;;;4995288;28;91087;-30
2022/09/30 05:19:57;;;;;;;14.18;12.98;;;7.10;99.90;;;;;;4985868;28;89494;-31
2022/09/30 05:22:23;;;;;;;12.90;11.60;;;7.00;99.90;;;;;;4972005;28;88676;-32
2022/09/30 05:24:50;;;;;;;13.18;11.88;;;7.00;99.90;;;;;;4997167;28;90399;-30
2022/09/30 05:27:16;;;;;;;12.82;11.55;;;7.00;99.90;;;;;;4993166;28;89904;-33
2022/09/30 05:29:42;;;;;;;45.78;13.70;;;7.00;99.90;;;;;;4981410;28;89195;-33
2022/09/30 05:32:08;;;;;;;10.23;9.43;;;6.90;99.90;;;;;;4995002;28;87916;-33
2022/09/30 05:34:34;;;;;;;13.80;12.55;;;6.80;99.90;;;;;;4997911;28;90251;-30
2022/09/30 05:36:59;;;;;;;11.93;10.75;;;6.70;99.90;;;;;;4995034;28;90718;-29
2022/09/30 05:39:25;;;;;;;11.40;10.40;;;6.70;99.90;;;;;;4997077;28;90479;-31
2022/09/30 05:41:51;;;;;;;11.50;10.40;;;6.60;99.90;;;;;;4996770;28;89796;-30
2022/09/30 05:44:18;;;;;;;11.65;10.65;;;6.60;99.90;;;;;;4994332;28;90838;-31
2022/09/30 05:46:43;;;;;;;11.98;10.93;;;6.60;99.90;;;;;;4996884;28;89248;-30
2022/09/30 05:49:09;;;;;;;11.77;10.68;;;6.60;99.90;;;;;;4982904;28;88958;-30
2022/09/30 05:51:35;;;;;;;12.73;11.52;;;6.60;99.90;;;;;;4978052;28;89592;-34
2022/09/30 05:54:01;;;;;;;14.40;13.20;;;6.60;99.90;;;;;;4979205;28;89907;-30
2022/09/30 05:56:27;;;;;;;13.35;12.15;;;6.70;99.90;;;;;;4977460;28;90370;-30
2022/09/30 05:58:52;;;;;;;13.88;12.57;;;6.70;99.90;;;;;;4979282;28;89549;-30
2022/09/30 06:01:18;;;;;;;13.45;12.07;;;6.70;99.90;;;;;;4977769;28;88355;-29
2022/09/30 06:03:45;;;;;;;12.82;11.60;;;6.70;99.90;;;;;;4994193;28;90386;-31
2022/09/30 06:06:11;;;;;;;11.80;10.75;;;6.70;99.90;;;;;;4995673;28;89045;-30
2022/09/30 06:08:37;;;;;;;15.15;11.30;;;6.80;99.90;;;;;;4992026;28;89475;-32
2022/09/30 06:11:10;;;;;;;11.40;10.30;;;6.70;99.90;;;;;;4995645;28;89289;-31
2022/09/30 06:13:36;;;;;;;14.15;10.95;;;6.80;99.90;;;;;;4992216;28;90303;-30
2022/09/30 06:16:04;;;;;;;23.75;11.80;;;6.80;99.90;;;;;;4995337;28;90584;-31
2022/09/30 06:18:30;;;;;;;13.80;12.10;;;6.80;99.90;;;;;;4992754;28;89389;-30
2022/09/30 06:20:58;;;;;;;12.35;11.07;;;6.80;99.90;;;;;;4994933;28;89259;-30
2022/09/30 06:23:25;;;;;;;13.45;12.15;;;6.80;99.90;;;;;;4993087;28;89285;-28
2022/09/30 06:25:51;;;;;;;12.20;11.10;;;6.80;99.90;;;;;;4993772;28;90207;-33
2022/09/30 06:28:18;;;;;;;15.65;14.10;;;6.80;99.90;;;;;;4995792;28;89154;-31
2022/09/30 06:30:44;;;;;;;12.80;11.70;;;6.80;99.90;;;;;;4992333;28;88902;-30
2022/09/30 06:33:11;;;;;;;13.38;12.10;;;6.90;99.90;;;;;;4996788;28;90252;-31
2022/09/30 06:35:36;;;;;;;13.30;12.15;;;6.80;99.90;;;;;;4995996;28;89579;-30
2022/09/30 06:38:02;;;;;;;13.93;12.60;;;6.90;99.90;;;;;;4998187;28;89428;-30
2022/09/30 06:40:28;;;;;;;12.43;11.25;;;6.90;99.90;;;;;;4995520;28;88490;-33
2022/09/30 06:42:58;;;;;;;13.18;11.77;;;6.90;99.90;;;;;;4979986;28;90304;-30
2022/09/30 06:45:25;;;;;;;14.20;12.90;;;7.00;99.90;;;;;;4980272;28;90100;-31
2022/09/30 06:47:50;;;;;;;14.52;13.18;;;7.00;99.90;;;;;;4979580;28;89963;-33
2022/09/30 06:50:17;;;;;;;13.95;12.63;;;7.10;99.90;;;;;;4981520;28;88957;-30
2022/09/30 06:52:44;;;;;;;13.15;11.93;;;7.10;99.90;;;;;;4980846;28;90386;-30
2022/09/30 06:55:09;;;;;;;16.02;14.43;;;7.20;99.90;;;;;;4979423;28;89140;-33
2022/09/30 06:57:35;;;;;;;13.90;12.60;;;7.30;99.90;;;;;;4986676;28;89686;-29
2022/09/30 07:00:01;;;;;;;14.85;13.40;;;7.40;99.90;;;;;;4986985;28;90453;-29
2022/09/30 07:02:28;;;;;;;13.88;12.55;;;7.40;99.90;;;;;;4990904;28;90257;-33
2022/09/30 07:04:53;;;;;;;15.07;13.60;;;7.60;99.90;;;;;;4990531;28;89519;-29
2022/09/30 07:07:20;;;;;;;12.55;11.38;;;7.70;99.90;;;;;;4989490;28;90272;-34
2022/09/30 07:09:46;;;;;;;13.57;12.30;;;7.70;99.90;;;;;;4992569;28;88526;-30
2022/09/30 07:12:12;;;;;;;19.25;12.35;;;7.80;99.90;;;;;;4987302;28;89835;-32
2022/09/30 07:14:38;;;;;;;13.85;12.55;;;7.90;99.90;;;;;;4993340;28;90498;-30
2022/09/30 07:17:05;;;;;;;13.35;12.15;;;8.00;99.90;;;;;;4987922;28;90645;-29
2022/09/30 07:19:33;;;;;;;12.13;11.02;;;8.10;99.90;;;;;;4991476;28;88247;-32
2022/09/30 07:22:26;;;;;;;15.07;13.57;;;8.20;99.90;;;;;;4988839;28;89853;-32
2022/09/30 07:24:44;;;;;;;13.07;11.85;;;8.30;99.90;;;;;;4992992;28;90542;-30
2022/09/30 07:27:12;;;;;;;14.38;13.05;;;8.40;99.90;;;;;;4988132;28;91299;-30
2022/09/30 07:29:39;;;;;;;13.50;12.20;;;8.50;99.90;;;;;;4991450;28;88661;-30
2022/09/30 07:32:05;;;;;;;12.38;11.10;;;8.60;99.90;;;;;;4971859;28;89877;-33
2022/09/30 07:34:31;;;;;;;20.40;13.07;;;8.70;99.90;;;;;;4989397;28;89550;-30
2022/09/30 07:36:56;;;;;;;14.40;11.52;;;8.80;99.90;;;;;;4991196;28;89594;-30
2022/09/30 07:39:22;;;;;;;12.55;11.35;;;8.90;99.90;;;;;;4986835;28;88789;-31
2022/09/30 07:41:48;;;;;;;12.98;11.30;;;9.00;99.90;;;;;;4992539;28;90240;-31
2022/09/30 07:44:13;;;;;;;14.45;12.93;;;9.10;99.90;;;;;;4986697;28;90020;-29
2022/09/30 07:46:40;;;;;;;14.73;12.07;;;9.20;99.90;;;;;;4991055;28;88939;-31
2022/09/30 07:49:11;;;;;;;13.65;11.88;;;9.30;99.90;;;;;;4944758;28;88284;-31
2022/09/30 07:51:39;;;;;;;13.90;12.52;;;9.40;99.90;;;;;;4967655;28;88282;-31
2022/09/30 07:54:12;;;;;;;14.32;12.88;;;9.60;99.90;;;;;;4980189;28;88991;-30
2022/09/30 07:56:38;;;;;;;17.27;14.40;;;9.70;99.90;;;;;;4979928;28;90016;-32
2022/09/30 07:59:05;;;;;;;18.30;15.20;;;9.80;99.90;;;;;;4979784;28;88546;-32
2022/09/30 08:01:31;;;;;;;15.05;13.43;;;9.90;99.90;;;;;;4979360;28;90345;-31
2022/09/30 08:04:00;;;;;;;15.63;14.02;;;9.90;99.90;;;;;;4979313;28;90250;-31
2022/09/30 08:06:28;;;;;;;15.43;13.82;;;10.10;99.90;;;;;;4979372;28;91447;-30
2022/09/30 08:08:56;;;;;;;17.70;15.43;;;10.20;99.90;;;;;;4979752;28;88983;-30
2022/09/30 08:11:22;;;;;;;15.98;14.30;;;10.40;99.90;;;;;;4979189;28;90006;-33
2022/09/30 08:13:52;;;;;;;17.77;14.65;;;10.50;99.90;;;;;;4958677;28;89531;-30
2022/09/30 08:16:19;;;;;;;19.52;14.27;;;10.60;99.90;;;;;;4972640;28;90848;-30
2022/09/30 08:18:44;;;;;;;18.08;14.50;;;10.60;99.90;;;;;;4979226;28;88113;-33
2022/09/30 08:21:10;;;;;;;22.08;14.95;;;10.80;99.90;;;;;;4979308;28;89956;-32
2022/09/30 08:23:36;;;;;;;15.57;13.70;;;10.90;99.90;;;;;;4979225;28;91364;-30
2022/09/30 08:26:07;;;;;;;17.67;15.65;;;11.00;99.90;;;;;;4978876;28;89409;-30
2022/09/30 08:28:33;;;;;;;17.20;14.52;;;11.00;99.90;;;;;;4978820;28;90434;-31
2022/09/30 08:31:20;;;;;;;17.27;15.25;;;11.20;99.90;;;;;;4980028;28;90329;-34
2022/09/30 08:33:45;;;;;;;19.05;14.20;;;11.30;99.90;;;;;;4979707;28;89243;-30
2022/09/30 08:36:21;;;;;;;17.77;15.27;;;11.40;99.90;;;;;;4978683;28;88560;-35
2022/09/30 08:38:46;;;;;;;23.35;13.98;;;11.50;99.90;;;;;;4980130;28;89360;-30
2022/09/30 08:41:37;;;;;;;16.00;12.93;;;11.50;99.90;;;;;;4979201;28;90208;-31
2022/09/30 08:44:14;;;;;;;18.75;13.48;;;11.60;99.90;;;;;;4979589;28;89597;-31
2022/09/30 08:46:45;;;;;;;17.15;14.32;;;11.80;99.90;;;;;;4979119;28;89396;-30
2022/09/30 08:49:32;;;;;;;17.10;15.23;;;11.90;99.90;;;;;;4979121;28;88620;-31
2022/09/30 08:52:00;;;;;;;17.52;14.27;;;12.00;99.90;;;;;;4979290;28;92473;-31
2022/09/30 08:54:31;;;;;;;16.40;14.00;;;12.20;99.90;;;;;;4978180;28;90602;-33
2022/09/30 08:56:58;;;;;;;14.10;12.60;;;12.30;99.90;;;;;;4978689;28;90659;-33
2022/09/30 08:59:39;;;;;;;15.52;13.90;;;12.40;99.90;;;;;;4978253;28;88525;-32
2022/09/30 09:02:18;;;;;;;14.48;12.93;;;12.50;99.90;;;;;;4978862;28;90268;-32
2022/09/30 09:04:45;;;;;;;16.75;13.80;;;12.70;99.90;;;;;;4978648;28;90571;-30
2022/09/30 09:07:28;;;;;;;18.10;13.40;;;12.70;99.90;;;;;;4978208;28;89340;-30
2022/09/30 09:10:12;;;;;;;13.32;11.90;;;12.90;99.90;;;;;;4979281;28;89514;-30
2022/09/30 09:13:10;;;;;;;14.90;12.35;;;13.00;99.90;;;;;;4978533;28;90187;-32
2022/09/30 09:16:08;;;;;;;14.02;11.95;;;13.10;99.90;;;;;;4977740;28;89296;-30
2022/09/30 09:18:48;;;;;;;14.13;12.60;;;13.20;99.90;;;;;;4974070;28;89604;-30
2022/09/30 09:21:13;;;;;;;12.45;11.23;;;13.40;99.90;;;;;;4978070;28;90054;-30
2022/09/30 09:23:40;;;;;;;11.52;10.00;;;13.50;99.90;;;;;;4979042;28;90580;-31
2022/09/30 09:26:07;;;;;;;25.52;23.20;;;13.70;99.90;;;;;;4978063;28;89741;-31
2022/09/30 09:29:03;;;;;;;13.93;12.30;;;13.70;99.90;;;;;;4978375;28;89806;-30
2022/09/30 09:31:29;;;;;;;10.52;9.43;;;13.80;99.90;;;;;;4978117;28;88894;-32
2022/09/30 09:34:00;;;;;;;10.00;8.40;;;13.90;99.90;;;;;;4979209;28;90566;-33
2022/09/30 09:36:38;;;;;;;11.13;9.00;;;14.00;99.90;;;;;;4979348;28;89941;-31
2022/09/30 09:39:22;;;;;;;9.00;7.78;;;14.10;99.90;;;;;;4979997;28;90062;-31
2022/09/30 09:42:20;;;;;;;14.70;7.57;;;14.20;99.90;;;;;;4979373;28;89324;-32
2022/09/30 09:44:53;;;;;;;9.23;7.25;;;14.30;99.90;;;;;;4968699;28;90229;-30
2022/09/30 09:47:19;;;;;;;9.10;7.85;;;14.30;99.90;;;;;;4958979;28;91563;-32
2022/09/30 09:49:49;;;;;;;9.98;7.60;;;14.30;99.90;;;;;;4978119;28;90161;-32
2022/09/30 09:52:27;;;;;;;9.68;8.88;;;14.40;99.90;;;;;;4978656;28;89139;-29
2022/09/30 09:54:56;;;;;;;8.13;7.43;;;14.50;99.90;;;;;;4960793;28;91111;-31
2022/09/30 09:57:26;;;;;;;;;;;14.50;99.90;;;;;;4978830;28;90307;-31
2022/09/30 10:03:17;;;;;;;9.23;8.43;;;14.60;99.90;;;;;;4978170;28;88974;-30
2022/09/30 10:05:46;;;;;;;8.48;7.57;;;14.70;99.90;;;;;;4979094;28;90447;-33
2022/09/30 10:08:20;;;;;;;8.85;8.05;;;14.70;99.90;;;;;;4980153;28;89677;-32
2022/09/30 10:11:03;;;;;;;8.63;7.82;;;14.80;99.90;;;;;;4982412;28;90276;-31
2022/09/30 10:13:39;;;;;;;7.43;6.70;;;14.90;99.90;;;;;;4982007;28;90008;-31
2022/09/30 10:16:05;;;;;;;8.27;7.50;;;14.90;99.90;;;;;;4981324;28;90312;-33
2022/09/30 10:18:33;;;;;;;10.18;9.18;;;15.00;99.90;;;;;;4982358;28;89980;-31
2022/09/30 10:21:06;;;;;;;10.07;8.18;;;15.00;99.90;;;;;;4982450;28;89999;-31
2022/09/30 10:23:37;;;;;;;9.65;8.75;;;15.00;99.90;;;;;;4981782;28;88942;-32
2022/09/30 10:26:18;;;;;;;9.45;8.57;;;15.10;99.90;;;;;;4981756;28;90598;-33
2022/09/30 10:28:46;;;;;;;11.88;9.00;;;15.10;99.90;;;;;;4982052;28;90860;-32
2022/09/30 10:31:16;;;;;;;8.85;7.95;;;15.20;99.90;;;;;;4981605;28;89914;-33
2022/09/30 10:33:45;;;;;;;8.85;8.05;;;15.20;99.90;;;;;;4981480;28;89886;-30
2022/09/30 10:36:17;;;;;;;10.88;9.50;;;15.30;99.90;;;;;;4982257;28;90231;-32
2022/09/30 10:38:58;;;;;;;9.98;9.07;;;15.40;99.90;;;;;;4981103;28;90500;-30
2022/09/30 10:41:27;;;;;;;10.02;8.93;;;15.40;99.90;;;;;;4981285;28;90468;-31
2022/09/30 10:43:56;;;;;;;13.43;9.90;;;15.40;99.90;;;;;;4982025;28;89849;-34
2022/09/30 10:46:36;;;;;;;10.13;9.10;;;15.40;99.90;;;;;;4981451;28;90158;-30
2022/09/30 10:49:22;;;;;;;10.15;9.15;;;15.50;99.90;;;;;;4981503;28;89948;-31
2022/09/30 10:51:47;;;;;;;14.18;10.50;;;15.50;99.90;;;;;;4979947;28;89641;-31
2022/09/30 10:54:39;;;;;;;10.38;9.48;;;15.60;99.90;;;;;;4980842;28;89459;-34
2022/09/30 10:57:12;;;;;;;12.00;11.00;;;15.70;99.90;;;;;;4971264;28;90225;-33
2022/09/30 10:59:39;;;;;;;16.10;14.60;;;15.80;99.90;;;;;;4981037;28;89801;-32
2022/09/30 11:02:15;;;;;;;15.55;11.80;;;15.80;99.90;;;;;;4980463;28;89383;-33
2022/09/30 11:04:54;;;;;;;13.43;12.15;;;15.90;99.90;;;;;;4980137;28;92543;-30
2022/09/30 11:07:33;;;;;;;17.05;12.50;;;15.80;99.90;;;;;;4979578;28;90339;-32
2022/09/30 11:10:06;;;;;;;14.05;12.77;;;15.70;99.90;;;;;;4980653;28;89542;-32
2022/09/30 11:12:44;;;;;;;13.55;12.15;;;15.80;99.90;;;;;;4980411;28;90681;-31
2022/09/30 11:15:22;;;;;;;12.35;10.57;;;16.00;99.90;;;;;;4979509;28;89622;-32
2022/09/30 11:18:15;;;;;;;11.45;10.10;;;16.10;99.90;;;;;;4979330;28;90254;-33
2022/09/30 11:20:46;;;;;;;13.98;12.68;;;16.10;99.90;;;;;;4965716;28;89566;-32
2022/09/30 11:23:18;;;;;;;12.20;11.13;;;16.30;99.90;;;;;;4976108;28;89579;-34
2022/09/30 11:26:18;;;;;;;10.82;9.80;;;16.30;99.90;;;;;;4980151;28;89109;-31
2022/09/30 11:28:57;;;;;;;11.98;10.88;;;16.20;99.90;;;;;;4962631;28;90151;-32
2022/09/30 11:31:29;;;;;;;11.40;10.15;;;16.10;99.90;;;;;;4977860;28;89534;-32
2022/09/30 11:34:10;;;;;;;12.10;10.07;;;16.00;99.90;;;;;;4976646;28;90169;-33
2022/09/30 11:36:41;;;;;;;9.55;8.60;;;16.10;99.90;;;;;;4975508;28;89245;-31
2022/09/30 11:39:26;;;;;;;12.55;9.13;;;16.30;99.90;;;;;;4983760;28;90171;-33
2022/09/30 11:41:59;;;;;;;9.95;9.05;;;16.40;99.90;;;;;;4986910;28;89392;-32
2022/09/30 11:44:34;;;;;;;9.80;8.80;;;16.50;99.90;;;;;;4984629;28;88534;-32
2022/09/30 11:47:26;;;;;;;12.75;9.82;;;16.40;99.90;;;;;;4985519;28;89208;-31
2022/09/30 11:50:05;;;;;;;11.82;9.50;;;16.40;99.90;;;;;;4978057;28;90551;-32
2022/09/30 11:52:55;;;;;;;12.25;10.88;;;16.40;99.90;;;;;;4989054;28;90587;-30
2022/09/30 11:56:01;;;;;;;16.55;12.80;;;16.50;99.90;;;;;;4983590;28;88326;-33
2022/09/30 11:58:35;;;;;;;11.20;10.20;;;16.40;99.90;;;;;;4983654;28;89616;-31
2022/09/30 12:01:09;;;;;;;13.05;11.60;;;16.40;99.90;;;;;;4989030;28;89955;-33
2022/09/30 12:03:41;;;;;;;11.63;10.45;;;16.50;99.90;;;;;;4983043;28;89971;-31
2022/09/30 12:06:32;;;;;;;12.65;9.98;;;16.60;99.90;;;;;;4988251;28;90879;-31
2022/09/30 12:09:06;;;;;;;10.98;9.85;;;16.80;99.90;;;;;;4984216;28;88924;-32
2022/09/30 12:11:45;;;;;;;10.48;9.40;;;16.90;99.90;;;;;;4986865;28;91317;-33
2022/09/30 12:14:24;;;;;;;11.48;10.27;;;16.80;99.90;;;;;;4976630;28;90120;-31
2022/09/30 12:16:50;;;;;;;15.10;13.50;;;16.90;99.90;;;;;;4989055;28;89695;-33
2022/09/30 12:19:33;;;;;;;13.88;12.55;;;17.00;99.90;;;;;;4994720;28;88037;-31
2022/09/30 12:22:13;;;;;;;15.43;13.73;;;16.80;99.90;;;;;;4984593;28;89059;-30
2022/09/30 12:24:41;;;;;;;15.35;13.80;;;16.80;99.90;;;;;;4975347;28;90484;-32
2022/09/30 12:27:29;;;;;;;12.77;11.48;;;16.80;99.90;;;;;;4976870;28;90283;-34
2022/09/30 12:30:18;;;;;;;;;;;16.80;99.90;;;;;;4977224;28;89769;-33
2022/09/30 12:32:56;;;;;;;13.70;12.35;;;16.80;99.90;;;;;;4978202;28;90233;-32
2022/09/30 12:36:01;;;;;;;13.77;12.45;;;16.70;99.90;;;;;;4964736;28;89738;-34
2022/09/30 12:38:53;;;;;;;15.43;13.18;;;16.70;99.90;;;;;;4977001;28;90704;-32
2022/09/30 12:41:40;;;;;;;13.95;12.50;;;16.80;99.90;;;;;;4976589;28;89531;-33
2022/09/30 12:44:27;;;;;;;14.65;13.18;;;16.80;99.90;;;;;;4976658;28;90209;-31
2022/09/30 12:46:52;;;;;;;13.65;12.25;;;16.80;99.90;;;;;;4976626;28;89654;-34
2022/09/30 12:49:23;;;;;;;13.38;12.13;;;16.80;99.90;;;;;;5013137;22;90092;-31
2022/09/30 12:51:53;;;;;;;14.90;11.50;;;16.90;99.90;;;;;;4976441;28;89806;-31
2022/09/30 12:54:30;;;;;;;13.30;11.73;;;16.90;99.90;;;;;;4975246;28;90927;-30
2022/09/30 12:56:59;;;;;;;13.75;12.32;;;17.00;99.90;;;;;;4970952;28;89826;-29
2022/09/30 12:59:32;;;;;;;12.77;11.48;;;17.10;99.90;;;;;;4962803;28;89554;-31
2022/09/30 13:02:00;;;;;;;12.30;10.98;;;17.10;99.90;;;;;;4971195;28;90062;-32
2022/09/30 13:04:41;;;;;;;14.27;11.38;;;17.00;99.90;;;;;;4976527;28;89418;-30
2022/09/30 13:07:15;;;;;;;13.15;12.00;;;17.20;99.90;;;;;;4976629;28;89679;-32
2022/09/30 13:10:01;;;;;;;13.02;10.95;;;17.20;99.90;;;;;;4976499;28;88836;-33